sensor_id;sensor_type;location;lat;lon;timestamp;temperature;humidity
21518;DHT22;61765;45.794;24.150;2023-03-16T00:01:44;13.70;76.20
21518;DHT22;61765;45.794;24.150;2023-03-16T00:09:52;14.00;75.80
21518;DHT22;61765;45.794;24.150;2023-03-16T00:17:57;13.60;76.80
21518;DHT22;61765;45.794;24.150;2023-03-16T00:26:06;13.50;77.50
21518;DHT22;61765;45.794;24.150;2023-03-16T00:34:14;13.60;77.70
21518;DHT22;61765;45.794;24.150;2023-03-16T00:42:24;13.80;77.30
21518;DHT22;61765;45.794;24.150;2023-03-16T00:50:30;13.80;77.70
21518;DHT22;61765;45.794;24.150;2023-03-16T00:58:39;13.80;77.40
21518;DHT22;61765;45.794;24.150;2023-03-16T01:06:45;13.90;77.80
21518;DHT22;61765;45.794;24.150;2023-03-16T01:14:54;13.70;78.50
21518;DHT22;61765;45.794;24.150;2023-03-16T01:23:00;13.60;78.90
21518;DHT22;61765;45.794;24.150;2023-03-16T01:31:12;13.80;79.20
21518;DHT22;61765;45.794;24.150;2023-03-16T01:39:18;13.50;79.20
21518;DHT22;61765;45.794;24.150;2023-03-16T01:47:28;13.50;80.10
21518;DHT22;61765;45.794;24.150;2023-03-16T01:55:42;13.50;79.80
21518;DHT22;61765;45.794;24.150;2023-03-16T02:03:54;13.50;80.70
21518;DHT22;61765;45.794;24.150;2023-03-16T02:12:02;13.30;80.90
21518;DHT22;61765;45.794;24.150;2023-03-16T02:20:25;13.40;81.10
21518;DHT22;61765;45.794;24.150;2023-03-16T02:28:39;13.10;81.40
21518;DHT22;61765;45.794;24.150;2023-03-16T02:36:53;13.20;81.70
21518;DHT22;61765;45.794;24.150;2023-03-16T02:45:00;13.10;81.60
21518;DHT22;61765;45.794;24.150;2023-03-16T02:53:11;13.10;82.00
21518;DHT22;61765;45.794;24.150;2023-03-16T03:01:17;13.00;82.30
21518;DHT22;61765;45.794;24.150;2023-03-16T03:09:26;12.80;82.60
21518;DHT22;61765;45.794;24.150;2023-03-16T03:17:32;12.70;82.90
21518;DHT22;61765;45.794;24.150;2023-03-16T03:25:41;12.60;82.80
21518;DHT22;61765;45.794;24.150;2023-03-16T03:33:48;12.50;83.20
21518;DHT22;61765;45.794;24.150;2023-03-16T03:41:59;12.20;83.80
21518;DHT22;61765;45.794;24.150;2023-03-16T03:50:06;12.30;83.80
21518;DHT22;61765;45.794;24.150;2023-03-16T03:58:24;12.10;83.70
21518;DHT22;61765;45.794;24.150;2023-03-16T04:06:30;12.10;83.70
21518;DHT22;61765;45.794;24.150;2023-03-16T04:14:38;12.10;84.00
21518;DHT22;61765;45.794;24.150;2023-03-16T04:22:45;11.70;82.70
21518;DHT22;61765;45.794;24.150;2023-03-16T04:30:54;11.70;83.60
21518;DHT22;61765;45.794;24.150;2023-03-16T04:39:05;11.60;82.90
21518;DHT22;61765;45.794;24.150;2023-03-16T04:47:16;11.20;82.50
21518;DHT22;61765;45.794;24.150;2023-03-16T04:55:22;10.80;82.60
21518;DHT22;61765;45.794;24.150;2023-03-16T05:03:30;10.70;82.40
21518;DHT22;61765;45.794;24.150;2023-03-16T05:11:38;10.70;82.20
21518;DHT22;61765;45.794;24.150;2023-03-16T05:19:49;10.40;82.70
21518;DHT22;61765;45.794;24.150;2023-03-16T05:27:56;10.20;82.90
21518;DHT22;61765;45.794;24.150;2023-03-16T05:36:17;10.10;83.40
21518;DHT22;61765;45.794;24.150;2023-03-16T05:44:26;10.10;83.20
21518;DHT22;61765;45.794;24.150;2023-03-16T05:52:45;10.10;82.90
21518;DHT22;61765;45.794;24.150;2023-03-16T06:00:58;10.00;82.80
21518;DHT22;61765;45.794;24.150;2023-03-16T06:09:09;10.10;82.90
21518;DHT22;61765;45.794;24.150;2023-03-16T06:17:16;10.10;83.20
21518;DHT22;61765;45.794;24.150;2023-03-16T06:25:25;10.20;82.50
21518;DHT22;61765;45.794;24.150;2023-03-16T06:33:31;10.50;82.20
21518;DHT22;61765;45.794;24.150;2023-03-16T06:41:40;10.60;82.20
21518;DHT22;61765;45.794;24.150;2023-03-16T06:49:49;10.50;81.40
21518;DHT22;61765;45.794;24.150;2023-03-16T06:58:02;10.40;82.10
21518;DHT22;61765;45.794;24.150;2023-03-16T07:06:08;10.80;81.90
21518;DHT22;61765;45.794;24.150;2023-03-16T07:14:16;10.90;81.00
21518;DHT22;61765;45.794;24.150;2023-03-16T07:22:27;10.70;81.60
21518;DHT22;61765;45.794;24.150;2023-03-16T07:30:37;10.50;81.80
21518;DHT22;61765;45.794;24.150;2023-03-16T07:39:02;10.60;82.10
21518;DHT22;61765;45.794;24.150;2023-03-16T07:47:13;10.70;82.40
21518;DHT22;61765;45.794;24.150;2023-03-16T07:55:19;11.00;81.80
21518;DHT22;61765;45.794;24.150;2023-03-16T08:03:29;10.70;82.00
21518;DHT22;61765;45.794;24.150;2023-03-16T08:11:35;10.90;82.00
21518;DHT22;61765;45.794;24.150;2023-03-16T08:19:44;11.20;81.50
21518;DHT22;61765;45.794;24.150;2023-03-16T08:27:50;11.70;80.40
21518;DHT22;61765;45.794;24.150;2023-03-16T08:35:59;11.70;79.50
21518;DHT22;61765;45.794;24.150;2023-03-16T08:44:08;11.80;79.50
21518;DHT22;61765;45.794;24.150;2023-03-16T08:52:17;11.90;79.30
21518;DHT22;61765;45.794;24.150;2023-03-16T09:00:24;11.60;79.30
21518;DHT22;61765;45.794;24.150;2023-03-16T09:08:33;11.30;80.40
21518;DHT22;61765;45.794;24.150;2023-03-16T09:16:40;11.60;79.80
21518;DHT22;61765;45.794;24.150;2023-03-16T09:24:48;11.80;80.30
21518;DHT22;61765;45.794;24.150;2023-03-16T09:32:54;12.00;79.50
21518;DHT22;61765;45.794;24.150;2023-03-16T09:41:07;12.00;79.60
21518;DHT22;61765;45.794;24.150;2023-03-16T09:49:16;12.10;79.80
21518;DHT22;61765;45.794;24.150;2023-03-16T09:57:29;12.30;79.50
21518;DHT22;61765;45.794;24.150;2023-03-16T10:05:36;12.40;79.10
21518;DHT22;61765;45.794;24.150;2023-03-16T10:13:48;12.50;78.90
21518;DHT22;61765;45.794;24.150;2023-03-16T10:21:56;12.80;78.60
21518;DHT22;61765;45.794;24.150;2023-03-16T10:30:20;12.70;77.30
21518;DHT22;61765;45.794;24.150;2023-03-16T10:38:29;12.80;76.60
21518;DHT22;61765;45.794;24.150;2023-03-16T10:46:45;12.70;77.70
21518;DHT22;61765;45.794;24.150;2023-03-16T10:54:53;13.30;76.80
21518;DHT22;61765;45.794;24.150;2023-03-16T11:03:18;13.40;75.90
21518;DHT22;61765;45.794;24.150;2023-03-16T11:11:28;13.50;75.50
21518;DHT22;61765;45.794;24.150;2023-03-16T11:19:42;13.50;76.00
21518;DHT22;61765;45.794;24.150;2023-03-16T11:27:52;13.60;75.00
21518;DHT22;61765;45.794;24.150;2023-03-16T11:36:13;13.60;75.40
21518;DHT22;61765;45.794;24.150;2023-03-16T11:44:29;13.60;75.80
21518;DHT22;61765;45.794;24.150;2023-03-16T11:52:41;13.60;76.10
21518;DHT22;61765;45.794;24.150;2023-03-16T12:00:54;13.40;76.50
21518;DHT22;61765;45.794;24.150;2023-03-16T12:09:29;13.20;76.70
21518;DHT22;61765;45.794;24.150;2023-03-16T12:17:40;13.30;77.50
21518;DHT22;61765;45.794;24.150;2023-03-16T12:25:49;12.90;77.40
21518;DHT22;61765;45.794;24.150;2023-03-16T12:34:05;12.90;78.40
21518;DHT22;61765;45.794;24.150;2023-03-16T12:42:31;13.30;77.10
21518;DHT22;61765;45.794;24.150;2023-03-16T12:50:49;13.30;76.60
21518;DHT22;61765;45.794;24.150;2023-03-16T12:59:00;12.90;78.20
21518;DHT22;61765;45.794;24.150;2023-03-16T13:07:08;12.50;78.90
21518;DHT22;61765;45.794;24.150;2023-03-16T13:15:28;12.30;79.00
21518;DHT22;61765;45.794;24.150;2023-03-16T13:23:53;12.10;79.80
21518;DHT22;61765;45.794;24.150;2023-03-16T13:32:07;12.10;79.90
21518;DHT22;61765;45.794;24.150;2023-03-16T13:40:21;12.00;80.60
21518;DHT22;61765;45.794;24.150;2023-03-16T13:48:36;12.10;80.10
21518;DHT22;61765;45.794;24.150;2023-03-16T13:56:43;11.90;80.60
21518;DHT22;61765;45.794;24.150;2023-03-16T14:05:08;11.90;80.80
21518;DHT22;61765;45.794;24.150;2023-03-16T14:21:49;11.50;82.20
21518;DHT22;61765;45.794;24.150;2023-03-16T14:30:00;11.60;82.20
21518;DHT22;61765;45.794;24.150;2023-03-16T14:38:26;11.40;82.40
21518;DHT22;61765;45.794;24.150;2023-03-16T14:46:37;11.40;82.90
21518;DHT22;61765;45.794;24.150;2023-03-16T14:54:46;11.50;82.80
21518;DHT22;61765;45.794;24.150;2023-03-16T15:02:58;11.30;82.90
21518;DHT22;61765;45.794;24.150;2023-03-16T15:11:07;10.90;83.40
21518;DHT22;61765;45.794;24.150;2023-03-16T15:19:15;11.00;83.80
21518;DHT22;61765;45.794;24.150;2023-03-16T15:27:25;10.80;83.60
21518;DHT22;61765;45.794;24.150;2023-03-16T15:35:33;10.60;84.60
21518;DHT22;61765;45.794;24.150;2023-03-16T15:43:41;10.40;84.30
21518;DHT22;61765;45.794;24.150;2023-03-16T15:51:47;10.40;84.80
21518;DHT22;61765;45.794;24.150;2023-03-16T15:59:55;10.50;84.60
21518;DHT22;61765;45.794;24.150;2023-03-16T16:08:01;10.40;84.10
21518;DHT22;61765;45.794;24.150;2023-03-16T16:16:11;10.30;84.80
21518;DHT22;61765;45.794;24.150;2023-03-16T16:24:17;10.30;85.30
21518;DHT22;61765;45.794;24.150;2023-03-16T16:32:26;10.10;85.40
21518;DHT22;61765;45.794;24.150;2023-03-16T16:40:36;9.90;86.70
21518;DHT22;61765;45.794;24.150;2023-03-16T16:48:51;9.80;86.40
21518;DHT22;61765;45.794;24.150;2023-03-16T16:56:58;9.90;86.30
21518;DHT22;61765;45.794;24.150;2023-03-16T17:05:13;9.60;86.90
21518;DHT22;61765;45.794;24.150;2023-03-16T17:13:28;9.60;86.90
21518;DHT22;61765;45.794;24.150;2023-03-16T17:21:39;9.90;86.20
21518;DHT22;61765;45.794;24.150;2023-03-16T17:29:45;9.70;85.90
21518;DHT22;61765;45.794;24.150;2023-03-16T17:37:53;9.80;85.60
21518;DHT22;61765;45.794;24.150;2023-03-16T17:46:00;9.70;86.00
21518;DHT22;61765;45.794;24.150;2023-03-16T17:54:10;9.70;86.00
21518;DHT22;61765;45.794;24.150;2023-03-16T18:02:36;9.50;85.90
21518;DHT22;61765;45.794;24.150;2023-03-16T18:10:46;9.60;86.00
21518;DHT22;61765;45.794;24.150;2023-03-16T18:18:55;9.70;86.30
21518;DHT22;61765;45.794;24.150;2023-03-16T18:27:04;9.80;86.00
21518;DHT22;61765;45.794;24.150;2023-03-16T18:35:13;9.70;86.20
21518;DHT22;61765;45.794;24.150;2023-03-16T18:43:23;9.70;86.50
21518;DHT22;61765;45.794;24.150;2023-03-16T18:51:31;9.70;86.60
21518;DHT22;61765;45.794;24.150;2023-03-16T18:59:45;9.80;86.50
21518;DHT22;61765;45.794;24.150;2023-03-16T19:07:51;9.70;86.30
21518;DHT22;61765;45.794;24.150;2023-03-16T19:16:00;9.80;86.40
21518;DHT22;61765;45.794;24.150;2023-03-16T19:24:19;9.80;86.00
21518;DHT22;61765;45.794;24.150;2023-03-16T19:32:28;9.70;86.30
21518;DHT22;61765;45.794;24.150;2023-03-16T19:40:33;9.90;86.60
21518;DHT22;61765;45.794;24.150;2023-03-16T19:48:42;9.70;86.70
21518;DHT22;61765;45.794;24.150;2023-03-16T19:56:48;9.90;86.70
21518;DHT22;61765;45.794;24.150;2023-03-16T20:04:56;9.90;86.20
21518;DHT22;61765;45.794;24.150;2023-03-16T20:13:02;10.00;86.50
21518;DHT22;61765;45.794;24.150;2023-03-16T20:21:14;9.90;86.60
21518;DHT22;61765;45.794;24.150;2023-03-16T20:29:26;9.70;86.20
21518;DHT22;61765;45.794;24.150;2023-03-16T20:37:35;10.00;86.00
21518;DHT22;61765;45.794;24.150;2023-03-16T20:45:41;10.30;85.30
21518;DHT22;61765;45.794;24.150;2023-03-16T20:53:50;10.00;85.20
21518;DHT22;61765;45.794;24.150;2023-03-16T21:01:56;10.20;85.30
21518;DHT22;61765;45.794;24.150;2023-03-16T21:10:05;10.20;85.30
21518;DHT22;61765;45.794;24.150;2023-03-16T21:18:14;10.10;85.40
21518;DHT22;61765;45.794;24.150;2023-03-16T21:26:26;10.10;85.60
21518;DHT22;61765;45.794;24.150;2023-03-16T21:34:34;9.90;86.20
21518;DHT22;61765;45.794;24.150;2023-03-16T21:42:43;10.00;85.70
21518;DHT22;61765;45.794;24.150;2023-03-16T21:50:50;10.20;85.70
21518;DHT22;61765;45.794;24.150;2023-03-16T21:58:58;10.10;85.70
21518;DHT22;61765;45.794;24.150;2023-03-16T22:07:09;10.10;86.20
21518;DHT22;61765;45.794;24.150;2023-03-16T22:15:17;10.10;86.20
21518;DHT22;61765;45.794;24.150;2023-03-16T22:23:29;9.80;86.70
21518;DHT22;61765;45.794;24.150;2023-03-16T22:31:38;10.00;86.70
21518;DHT22;61765;45.794;24.150;2023-03-16T22:39:44;10.00;86.60
21518;DHT22;61765;45.794;24.150;2023-03-16T22:47:53;10.20;86.20
21518;DHT22;61765;45.794;24.150;2023-03-16T22:56:00;10.00;86.20
21518;DHT22;61765;45.794;24.150;2023-03-16T23:04:12;10.30;86.00
21518;DHT22;61765;45.794;24.150;2023-03-16T23:12:20;10.20;85.70
21518;DHT22;61765;45.794;24.150;2023-03-16T23:20:29;10.10;86.00
21518;DHT22;61765;45.794;24.150;2023-03-16T23:28:35;10.00;85.90
21518;DHT22;61765;45.794;24.150;2023-03-16T23:36:43;10.10;86.50
21518;DHT22;61765;45.794;24.150;2023-03-16T23:44:49;10.00;85.60
21518;DHT22;61765;45.794;24.150;2023-03-16T23:52:57;10.20;85.70
